createdAt,value
2019-03-22T00:02:16.136Z,65.26
2019-03-22T00:07:29.686Z,65.42
2019-03-22T00:09:57.920Z,64.76
2019-03-22T00:12:28.626Z,66.46
2019-03-22T00:15:05.429Z,66.92
2019-03-22T00:20:15.005Z,67.91
2019-03-22T00:22:55.086Z,67.89
2019-03-22T00:25:25.997Z,67.39
2019-03-22T00:27:59.483Z,67.27
2019-03-22T00:30:29.131Z,65.37
2019-03-22T00:33:01.439Z,66.33
2019-03-22T00:35:30.685Z,67.83
2019-03-22T00:38:02.038Z,67.52
2019-03-22T00:40:36.054Z,68.21
2019-03-22T00:43:08.604Z,68.46
2019-03-22T00:45:38.526Z,68.17
2019-03-22T00:48:08.049Z,66.66
2019-03-22T00:53:28.644Z,68.21
2019-03-22T00:56:02.470Z,68.74
2019-03-22T00:58:30.007Z,68.26
2019-03-22T01:01:02.384Z,68.79
2019-03-22T01:03:31.564Z,67.27
2019-03-22T01:06:01.697Z,68.45
2019-03-22T01:08:46.956Z,67.69
2019-03-22T01:11:19.295Z,65.73
2019-03-22T01:13:50.625Z,67.46
2019-03-22T01:19:05.506Z,68.65
2019-03-22T01:21:36.522Z,69.88
2019-03-22T01:24:09.242Z,71.02
2019-03-22T01:26:41.238Z,70.80
2019-03-22T01:29:13.173Z,70.51
2019-03-22T01:31:43.681Z,71.08
2019-03-22T01:36:57.727Z,71.13
2019-03-22T01:39:29.974Z,70.86
2019-03-22T01:41:57.269Z,70.88
2019-03-22T01:44:29.943Z,70.72
2019-03-22T01:46:58.378Z,70.52
2019-03-22T01:49:27.865Z,70.73
2019-03-22T01:51:58.325Z,71.95
2019-03-22T01:54:27.666Z,73.08
2019-03-22T01:56:59.360Z,72.85
2019-03-22T01:59:31.606Z,72.03
2019-03-22T02:02:00.958Z,72.04
2019-03-22T02:04:30.687Z,71.86
2019-03-22T02:07:02.138Z,71.61
2019-03-22T02:09:32.807Z,71.81
2019-03-22T02:12:02.209Z,72.41
2019-03-22T02:14:31.893Z,71.77
2019-03-22T02:17:01.372Z,71.77
2019-03-22T02:19:32.132Z,72.23
2019-03-22T02:22:03.284Z,71.82
2019-03-22T02:24:34.270Z,71.70
2019-03-22T02:27:05.683Z,70.70
2019-03-22T02:29:37.152Z,70.82
2019-03-22T02:32:08.095Z,72.87
2019-03-22T02:34:41.021Z,71.45
2019-03-22T02:37:11.093Z,70.58
2019-03-22T02:39:42.321Z,70.67
2019-03-22T02:42:15.061Z,70.52
2019-03-22T02:44:47.841Z,72.57
2019-03-22T02:47:18.508Z,73.93
2019-03-22T02:49:53.222Z,73.68
2019-03-22T02:52:23.293Z,73.16
2019-03-22T02:54:56.986Z,75.45
2019-03-22T02:57:25.929Z,74.89
2019-03-22T02:59:56.321Z,74.84
2019-03-22T03:02:27.570Z,74.79
2019-03-22T03:05:00.971Z,75.11
2019-03-22T03:07:32.102Z,75.44
2019-03-22T03:10:02.848Z,75.86
2019-03-22T03:12:32.965Z,75.68
2019-03-22T03:15:03.281Z,76.16
2019-03-22T03:17:35.219Z,76.02
2019-03-22T03:20:06.267Z,75.38
2019-03-22T03:22:36.397Z,75.81
2019-03-22T03:25:11.311Z,74.40
2019-03-22T03:27:41.298Z,76.27
2019-03-22T03:32:56.443Z,76.43
2019-03-22T03:35:27.665Z,76.24
2019-03-22T03:37:57.987Z,76.20
2019-03-22T03:40:28.950Z,76.30
2019-03-22T03:42:59.350Z,75.61
2019-03-22T03:45:41.345Z,75.91
2019-03-22T03:50:55.290Z,75.71
2019-03-22T03:53:26.268Z,74.54
2019-03-22T03:55:56.513Z,74.29
2019-03-22T03:58:27.966Z,75.22
2019-03-22T04:00:58.893Z,75.79
2019-03-22T04:03:30.309Z,76.07
2019-03-22T04:06:01.268Z,76.03
2019-03-22T04:08:34.338Z,74.95
2019-03-22T04:11:07.461Z,75.91
2019-03-22T04:13:37.345Z,74.72
2019-03-22T04:18:48.659Z,75.67
2019-03-22T04:21:18.904Z,76.34
2019-03-22T04:23:49.604Z,75.41
2019-03-22T04:26:20.427Z,75.73
2019-03-22T04:28:49.534Z,76.30
2019-03-22T04:31:21.525Z,74.82
2019-03-22T04:36:31.277Z,76.66
2019-03-22T04:39:09.085Z,76.70
2019-03-22T04:41:41.585Z,77.20
2019-03-22T04:44:14.524Z,77.26
2019-03-22T04:46:42.924Z,77.99
2019-03-22T04:49:13.418Z,78.15
2019-03-22T04:51:44.379Z,78.18
2019-03-22T04:54:16.186Z,76.87
2019-03-22T04:56:46.269Z,77.58
2019-03-22T04:59:19.872Z,77.69
2019-03-22T05:01:53.781Z,77.27
2019-03-22T05:04:25.606Z,77.86
2019-03-22T05:06:56.454Z,78.01
2019-03-22T05:09:26.367Z,77.33
2019-03-22T05:11:56.712Z,78.00
2019-03-22T05:14:33.149Z,77.84
2019-03-22T05:17:07.378Z,77.48
2019-03-22T05:19:42.409Z,78.19
2019-03-22T05:22:14.375Z,77.04
2019-03-22T05:24:49.728Z,77.25
2019-03-22T05:27:14.330Z,77.78
2019-03-22T05:29:47.369Z,78.18
2019-03-22T05:32:19.168Z,78.49
2019-03-22T05:34:52.444Z,78.44
2019-03-22T05:37:23.665Z,78.45
2019-03-22T05:39:55.528Z,78.70
2019-03-22T05:42:25.141Z,78.43
2019-03-22T05:44:57.451Z,78.18
2019-03-22T05:47:33.405Z,76.56
2019-03-22T05:50:06.787Z,77.77
2019-03-22T05:52:39.868Z,78.31
2019-03-22T05:55:12.631Z,78.76
2019-03-22T05:57:49.095Z,78.97
2019-03-22T06:00:18.328Z,77.56
2019-03-22T06:02:49.254Z,77.95
2019-03-22T06:05:18.688Z,77.92
2019-03-22T06:07:49.383Z,78.45
2019-03-22T06:10:21.041Z,79.11
2019-03-22T06:12:50.082Z,79.42
2019-03-22T06:15:20.634Z,79.04
2019-03-22T06:17:52.322Z,79.00
2019-03-22T06:20:23.545Z,78.39
2019-03-22T06:22:56.623Z,77.57
2019-03-22T06:25:25.649Z,76.21
2019-03-22T06:27:55.365Z,75.66
2019-03-22T06:30:30.164Z,75.05
2019-03-22T06:35:44.127Z,74.49
2019-03-22T06:38:13.939Z,72.94
2019-03-22T06:40:43.947Z,72.44
2019-03-22T06:43:13.892Z,71.67
2019-03-22T06:45:43.910Z,72.03
2019-03-22T06:48:15.233Z,70.73
2019-03-22T06:50:47.013Z,71.14
2019-03-22T06:53:21.833Z,71.40
2019-03-22T06:55:52.561Z,71.22
2019-03-22T06:58:24.110Z,70.50
2019-03-22T07:03:32.825Z,68.67
2019-03-22T07:06:06.575Z,69.57
2019-03-22T07:08:36.165Z,69.56
2019-03-22T07:11:05.853Z,69.57
2019-03-22T07:13:39.491Z,69.33
2019-03-22T07:16:10.081Z,66.71
2019-03-22T07:18:42.105Z,68.21
2019-03-22T07:21:11.600Z,68.94
2019-03-22T07:23:41.545Z,69.37
2019-03-22T07:26:10.785Z,69.15
2019-03-22T07:28:40.814Z,66.44
2019-03-22T07:31:10.950Z,67.30
2019-03-22T07:36:22.748Z,66.53
2019-03-22T07:38:54.331Z,67.51
2019-03-22T07:41:27.801Z,65.50
2019-03-22T07:43:59.849Z,65.88
2019-03-22T07:46:31.449Z,63.56
2019-03-22T07:49:03.690Z,65.00
2019-03-22T07:51:35.752Z,64.63
2019-03-22T07:54:06.167Z,63.08
2019-03-22T07:56:37.954Z,62.10
2019-03-22T07:59:16.073Z,62.58
2019-03-22T08:01:46.776Z,64.76
2019-03-22T08:06:57.359Z,62.85
2019-03-22T08:09:32.622Z,62.57
2019-03-22T08:12:06.098Z,61.90
2019-03-22T08:14:34.001Z,60.62
2019-03-22T08:17:06.928Z,61.02
2019-03-22T08:19:37.696Z,59.65
2019-03-22T08:22:08.594Z,57.81
2019-03-22T08:24:39.680Z,59.30
2019-03-22T08:27:10.876Z,58.35
2019-03-22T08:29:43.373Z,57.87
2019-03-22T08:32:13.671Z,57.69
2019-03-22T08:34:42.799Z,56.06
2019-03-22T08:37:13.387Z,57.29
2019-03-22T08:39:43.936Z,57.50
2019-03-22T08:42:13.881Z,56.45
2019-03-22T08:44:44.791Z,55.36
2019-03-22T08:47:16.371Z,54.54
2019-03-22T08:49:48.840Z,53.82
2019-03-22T08:52:18.445Z,54.00
2019-03-22T08:54:49.282Z,54.42
2019-03-22T08:57:24.730Z,54.51
2019-03-22T08:59:54.565Z,53.51
2019-03-22T09:05:11.368Z,51.34
2019-03-22T09:07:43.347Z,52.33
2019-03-22T09:12:56.969Z,54.00
2019-03-22T09:15:40.270Z,53.22
2019-03-22T09:17:59.793Z,50.37
2019-03-22T09:20:29.785Z,52.36
2019-03-22T09:22:59.572Z,53.75
2019-03-22T09:25:31.567Z,50.24
2019-03-22T09:28:01.456Z,51.01
2019-03-22T09:30:30.541Z,50.69
2019-03-22T09:33:00.534Z,50.08
2019-03-22T09:35:33.789Z,49.03
2019-03-22T09:38:12.912Z,50.86
2019-03-22T09:40:36.380Z,48.77
2019-03-22T09:43:04.708Z,49.57
2019-03-22T09:45:38.154Z,49.12
2019-03-22T09:48:10.734Z,49.12
2019-03-22T09:50:43.005Z,50.35
2019-03-22T09:53:12.428Z,47.09
2019-03-22T09:55:47.786Z,48.34
2019-03-22T09:58:19.088Z,46.26
2019-03-22T10:00:49.166Z,45.48
2019-03-22T10:03:21.256Z,46.81
2019-03-22T10:05:52.355Z,46.68
2019-03-22T10:08:21.993Z,46.20
2019-03-22T10:10:55.146Z,43.67
2019-03-22T10:13:24.461Z,45.77
2019-03-22T10:15:58.321Z,44.01
2019-03-22T10:18:25.064Z,42.78
2019-03-22T10:20:57.955Z,46.00
2019-03-22T10:23:27.394Z,45.60
2019-03-22T10:26:01.898Z,43.39
2019-03-22T10:28:34.718Z,43.14
2019-03-22T10:31:03.844Z,44.31
2019-03-22T10:33:34.563Z,43.84
2019-03-22T10:38:43.846Z,43.16
2019-03-22T10:41:18.173Z,42.79
2019-03-22T10:43:46.121Z,44.18
2019-03-22T10:46:19.037Z,41.51
2019-03-22T10:48:50.353Z,41.51
2019-03-22T10:51:21.418Z,40.78
2019-03-22T10:53:51.183Z,41.96
2019-03-22T10:56:21.335Z,42.29
2019-03-22T10:58:51.134Z,40.17
2019-03-22T11:04:01.178Z,40.01
2019-03-22T11:06:31.370Z,41.12
2019-03-22T11:09:06.075Z,41.65
2019-03-22T11:11:35.145Z,40.62
2019-03-22T11:14:08.135Z,38.34
2019-03-22T11:16:40.200Z,38.72
2019-03-22T11:19:11.274Z,38.39
2019-03-22T11:21:41.053Z,39.40
2019-03-22T11:24:11.351Z,39.77
2019-03-22T11:26:41.749Z,37.34
2019-03-22T11:29:14.174Z,38.26
2019-03-22T11:31:44.508Z,39.13
2019-03-22T11:34:13.912Z,37.24
2019-03-22T11:36:45.249Z,37.40
2019-03-22T11:39:16.012Z,37.85
2019-03-22T11:41:45.377Z,38.07
2019-03-22T11:44:15.791Z,38.92
2019-03-22T11:46:45.699Z,38.97
2019-03-22T11:49:15.918Z,37.30
2019-03-22T11:51:47.608Z,35.77
2019-03-22T11:54:21.123Z,37.24
2019-03-22T11:56:53.457Z,36.53
2019-03-22T11:59:25.343Z,35.01
2019-03-22T12:01:58.489Z,37.65
2019-03-22T12:04:27.797Z,36.41
2019-03-22T12:07:05.723Z,38.58
2019-03-22T12:09:36.554Z,37.33
2019-03-22T12:14:47.140Z,35.79
2019-03-22T12:17:18.777Z,34.20
2019-03-22T12:22:30.501Z,35.23
2019-03-22T12:27:42.712Z,36.56
2019-03-22T12:30:14.773Z,33.90
2019-03-22T12:32:44.376Z,32.68
2019-03-22T12:35:14.155Z,34.65
2019-03-22T12:37:45.561Z,33.15
2019-03-22T12:40:15.166Z,34.79
2019-03-22T12:42:46.979Z,33.93
2019-03-22T12:45:22.578Z,32.63
2019-03-22T12:47:55.479Z,33.89
2019-03-22T12:50:22.124Z,32.82
2019-03-22T12:52:55.523Z,35.12
2019-03-22T12:55:24.844Z,33.77
2019-03-22T12:57:55.605Z,33.21
2019-03-22T13:00:27.472Z,34.60
2019-03-22T13:02:58.508Z,34.28
2019-03-22T13:05:29.517Z,34.02
2019-03-22T13:08:00.483Z,33.12
2019-03-22T13:10:31.754Z,32.52
2019-03-22T13:13:00.250Z,34.04
2019-03-22T13:15:30.454Z,32.27
2019-03-22T13:18:02.417Z,33.41
2019-03-22T13:20:33.153Z,33.65
2019-03-22T13:23:01.853Z,32.35
2019-03-22T13:25:31.264Z,31.71
2019-03-22T13:28:01.919Z,31.48
2019-03-22T13:30:35.115Z,32.05
2019-03-22T13:33:09.128Z,33.96
2019-03-22T13:35:40.664Z,31.85
2019-03-22T13:38:13.291Z,32.57
2019-03-22T13:40:42.727Z,32.78
2019-03-22T13:43:13.940Z,32.34
2019-03-22T13:45:42.626Z,33.63
2019-03-22T13:48:16.106Z,34.03
2019-03-22T13:50:45.091Z,33.37
2019-03-22T13:53:14.329Z,33.47
2019-03-22T13:55:47.420Z,33.68
2019-03-22T13:58:16.406Z,33.08
2019-03-22T14:00:46.037Z,34.84
2019-03-22T14:03:14.605Z,32.74
2019-03-22T14:05:46.561Z,33.55
2019-03-22T14:08:18.504Z,32.92
2019-03-22T14:10:48.109Z,34.49
2019-03-22T14:13:20.673Z,31.02
2019-03-22T14:15:52.229Z,31.95
2019-03-22T14:18:25.783Z,32.74
2019-03-22T14:20:55.881Z,33.92
2019-03-22T14:23:25.964Z,32.10
2019-03-22T14:26:01.810Z,31.94
2019-03-22T14:28:34.552Z,32.83
2019-03-22T14:31:05.815Z,31.52
2019-03-22T14:33:39.553Z,33.13
2019-03-22T14:36:11.985Z,32.98
2019-03-22T14:38:44.192Z,32.20
2019-03-22T14:43:55.624Z,31.57
2019-03-22T14:46:29.070Z,34.01
2019-03-22T14:48:59.649Z,32.35
2019-03-22T14:51:28.562Z,32.72
2019-03-22T14:53:59.534Z,32.74
2019-03-22T14:56:31.973Z,34.27
2019-03-22T14:59:06.578Z,34.02
2019-03-22T15:01:36.413Z,33.61
2019-03-22T15:04:06.715Z,36.24
2019-03-22T15:06:38.112Z,36.41
2019-03-22T15:09:10.641Z,37.29
2019-03-22T15:11:42.705Z,36.20
2019-03-22T15:14:28.259Z,34.97
2019-03-22T15:17:09.048Z,36.13
2019-03-22T15:19:52.632Z,34.91
2019-03-22T15:22:38.290Z,33.94
2019-03-22T15:25:33.735Z,34.67
2019-03-22T15:28:21.194Z,34.97
2019-03-22T15:30:58.231Z,35.98
2019-03-22T15:33:46.433Z,35.36
2019-03-22T15:36:21.558Z,35.95
2019-03-22T15:39:15.958Z,33.45
2019-03-22T15:41:46.313Z,36.35
2019-03-22T15:44:16.551Z,37.34
2019-03-22T15:46:45.585Z,38.47
2019-03-22T15:49:13.877Z,37.17
2019-03-22T15:51:46.468Z,40.63
2019-03-22T15:54:16.146Z,39.61
2019-03-22T15:56:46.896Z,38.87
2019-03-22T15:59:15.897Z,36.70
2019-03-22T16:01:46.527Z,37.71
2019-03-22T16:04:18.622Z,40.97
2019-03-22T16:06:50.766Z,42.94
2019-03-22T16:09:23.164Z,42.69
2019-03-22T16:11:57.754Z,43.87
2019-03-22T16:14:32.603Z,43.19
2019-03-22T16:17:05.489Z,45.11
2019-03-22T16:19:36.429Z,45.58
2019-03-22T16:22:06.415Z,46.99
2019-03-22T16:24:35.573Z,46.22
2019-03-22T16:27:07.583Z,48.41
2019-03-22T16:29:37.690Z,49.22
2019-03-22T16:32:07.508Z,51.92
2019-03-22T16:34:38.550Z,52.96
2019-03-22T16:37:08.473Z,53.31
2019-03-22T16:39:40.372Z,50.64
2019-03-22T16:42:08.385Z,50.50
2019-03-22T16:44:46.128Z,51.70
2019-03-22T16:47:22.796Z,51.87
2019-03-22T16:49:53.129Z,55.02
2019-03-22T16:52:22.244Z,58.40
2019-03-22T16:54:54.785Z,58.20
2019-03-22T16:57:27.018Z,59.25
2019-03-22T17:02:39.259Z,61.13
2019-03-22T17:05:09.067Z,54.62
2019-03-22T17:07:41.319Z,52.33
2019-03-22T17:12:52.271Z,52.11
2019-03-22T17:15:20.582Z,53.34
2019-03-22T17:17:50.073Z,52.56
2019-03-22T17:23:06.137Z,52.28
2019-03-22T17:25:38.295Z,54.16
2019-03-22T17:28:08.819Z,53.63
2019-03-22T17:30:38.078Z,52.39
2019-03-22T17:33:08.606Z,52.39
2019-03-22T17:35:41.240Z,51.47
2019-03-22T17:38:11.774Z,49.92
2019-03-22T17:40:44.059Z,49.97
2019-03-22T17:43:12.793Z,49.07
2019-03-22T17:45:41.538Z,48.26
2019-03-22T17:48:10.291Z,49.06
2019-03-22T17:50:41.792Z,50.22
2019-03-22T17:53:10.623Z,50.23
2019-03-22T17:55:42.447Z,51.10
2019-03-22T17:58:11.099Z,51.14
2019-03-22T18:00:40.709Z,51.17
2019-03-22T18:03:11.100Z,50.86
2019-03-22T18:05:39.770Z,50.11
2019-03-22T18:08:10.277Z,50.67
2019-03-22T18:10:40.281Z,51.10
2019-03-22T18:13:12.394Z,51.79
2019-03-22T18:15:41.479Z,53.98
2019-03-22T18:18:10.552Z,54.00
2019-03-22T18:20:40.142Z,54.03
2019-03-22T18:23:10.612Z,51.41
2019-03-22T18:25:39.401Z,49.81
2019-03-22T18:28:10.417Z,50.75
2019-03-22T18:30:39.462Z,53.54
2019-03-22T18:33:07.233Z,54.20
2019-03-22T18:35:43.240Z,53.08
2019-03-22T18:38:08.696Z,53.63
2019-03-22T18:40:40.342Z,54.74
2019-03-22T18:43:09.193Z,53.82
2019-03-22T18:45:38.903Z,54.48
2019-03-22T18:48:08.310Z,53.60
2019-03-22T18:50:37.919Z,53.13
2019-03-22T18:53:07.215Z,53.16
2019-03-22T18:55:37.054Z,51.87
2019-03-22T18:58:07.625Z,52.00
2019-03-22T19:00:37.679Z,52.07
2019-03-22T19:03:07.398Z,53.44
2019-03-22T19:05:36.346Z,55.09
2019-03-22T19:08:05.596Z,54.91
2019-03-22T19:10:35.756Z,54.50
2019-03-22T19:13:04.631Z,55.15
2019-03-22T19:15:33.886Z,54.91
2019-03-22T19:18:03.844Z,56.04
2019-03-22T19:20:34.925Z,55.37
2019-03-22T19:23:03.945Z,55.66
2019-03-22T19:25:34.627Z,56.31
2019-03-22T19:28:03.755Z,54.29
2019-03-22T19:30:33.026Z,56.21
2019-03-22T19:33:05.550Z,58.71
2019-03-22T19:35:33.509Z,59.46
2019-03-22T19:38:04.615Z,60.67
2019-03-22T19:40:35.094Z,60.29
2019-03-22T19:43:05.574Z,65.16
2019-03-22T19:45:35.611Z,68.31
2019-03-22T19:48:05.612Z,70.70
2019-03-22T19:50:34.507Z,72.92
2019-03-22T19:53:04.183Z,72.27
2019-03-22T19:55:33.711Z,71.66
2019-03-22T19:58:02.832Z,69.27
2019-03-22T20:00:31.958Z,67.81
2019-03-22T20:03:02.842Z,67.42
2019-03-22T20:05:33.086Z,67.42
2019-03-22T20:08:02.827Z,67.45
2019-03-22T20:10:33.136Z,65.86
2019-03-22T20:13:01.991Z,65.84
2019-03-22T20:15:31.096Z,68.44
2019-03-22T20:18:02.916Z,68.56
2019-03-22T20:20:36.142Z,68.44
2019-03-22T20:23:07.108Z,67.77
2019-03-22T20:25:40.140Z,68.91
2019-03-22T20:28:11.357Z,66.63
2019-03-22T20:30:43.424Z,68.25
2019-03-22T20:33:13.910Z,66.65
2019-03-22T20:35:46.336Z,68.76
2019-03-22T20:38:16.752Z,69.82
2019-03-22T20:40:47.383Z,70.65
2019-03-22T20:43:25.696Z,68.47
2019-03-22T20:45:50.569Z,68.32
2019-03-22T20:48:21.302Z,69.63
2019-03-22T20:50:53.262Z,68.73
2019-03-22T20:53:22.562Z,68.86
2019-03-22T20:55:53.378Z,67.49
2019-03-22T20:58:26.517Z,66.70
2019-03-22T21:00:58.245Z,66.88
2019-03-22T21:03:30.028Z,67.24
2019-03-22T21:06:00.055Z,67.18
2019-03-22T21:08:32.171Z,67.32
2019-03-22T21:11:04.133Z,67.93
2019-03-22T21:13:34.473Z,67.36
2019-03-22T21:16:05.033Z,67.53
2019-03-22T21:18:38.854Z,69.02
2019-03-22T21:21:08.541Z,67.11
2019-03-22T21:26:23.833Z,67.33
2019-03-22T21:28:54.031Z,68.14
2019-03-22T21:31:28.575Z,68.46
2019-03-22T21:33:58.619Z,67.90
2019-03-22T21:36:28.750Z,68.45
2019-03-22T21:38:59.551Z,68.75
2019-03-22T21:41:33.878Z,69.47
2019-03-22T21:44:09.341Z,68.95
2019-03-22T21:46:40.201Z,69.70
2019-03-22T21:49:13.273Z,66.84
2019-03-22T21:51:44.424Z,67.69
2019-03-22T21:54:14.826Z,70.18
2019-03-22T21:59:27.803Z,70.25
2019-03-22T22:01:58.799Z,70.63
2019-03-22T22:04:28.676Z,70.39
2019-03-22T22:06:59.048Z,70.36
2019-03-22T22:09:31.274Z,68.78
2019-03-22T22:12:02.355Z,67.36
2019-03-22T22:14:40.757Z,69.02
2019-03-22T22:17:04.250Z,74.47
2019-03-22T22:19:38.325Z,71.90
2019-03-22T22:22:12.558Z,72.38
2019-03-22T22:24:40.710Z,72.93
2019-03-22T22:27:17.360Z,73.03
2019-03-22T22:29:52.091Z,73.25
2019-03-22T22:32:31.163Z,74.85
2019-03-22T22:34:54.934Z,74.80
2019-03-22T22:37:24.338Z,73.98
2019-03-22T22:39:57.893Z,74.16
2019-03-22T22:42:28.107Z,74.71
2019-03-22T22:45:00.386Z,74.23
2019-03-22T22:47:30.725Z,73.52
2019-03-22T22:50:00.345Z,74.64
2019-03-22T22:52:31.513Z,74.98
2019-03-22T23:00:23.059Z,71.75
2019-03-22T23:02:54.506Z,73.13
2019-03-22T23:05:25.043Z,73.73
2019-03-22T23:07:56.687Z,74.73
2019-03-22T23:10:24.324Z,74.60
2019-03-22T23:12:55.577Z,73.26
2019-03-22T23:15:25.055Z,72.91
2019-03-22T23:17:55.811Z,72.81
2019-03-22T23:20:30.062Z,75.66
2019-03-22T23:23:03.045Z,76.47
2019-03-22T23:25:35.408Z,76.57
2019-03-22T23:28:05.491Z,76.51
2019-03-22T23:30:37.371Z,75.46
2019-03-22T23:33:11.489Z,75.35
2019-03-22T23:35:42.117Z,73.47
2019-03-22T23:38:11.547Z,74.99
2019-03-22T23:40:43.088Z,75.60
2019-03-22T23:43:15.845Z,76.73
2019-03-22T23:45:45.327Z,74.94
2019-03-22T23:48:16.174Z,76.87
2019-03-22T23:50:51.825Z,74.13
2019-03-22T23:53:21.493Z,76.32
2019-03-22T23:55:54.134Z,76.85
2019-03-22T23:58:24.084Z,76.71
